createdAt,value
2023-01-09T00:01:44.407Z,58.58
2023-01-09T00:04:51.300Z,62.32
2023-01-09T00:07:58.127Z,64.75
2023-01-09T00:11:06.003Z,63.91
2023-01-09T00:14:12.746Z,62.58
2023-01-09T00:17:19.546Z,61.70
2023-01-09T00:20:26.274Z,60.24
2023-01-09T00:23:33.165Z,57.61
2023-01-09T00:26:40.078Z,56.66
2023-01-09T00:29:49.459Z,58.62
2023-01-09T00:32:57.089Z,60.38
2023-01-09T00:36:04.163Z,65.89
2023-01-09T00:39:10.993Z,69.04
2023-01-09T00:42:21.938Z,67.50
2023-01-09T00:45:31.460Z,65.79
2023-01-09T00:48:38.606Z,64.46
2023-01-09T00:51:45.527Z,63.68
2023-01-09T00:54:52.863Z,62.31
2023-01-09T00:57:59.718Z,61.19
2023-01-09T01:01:06.678Z,60.21
2023-01-09T01:04:31.161Z,57.43
2023-01-09T01:07:41.239Z,57.02
2023-01-09T01:10:49.365Z,58.66
2023-01-09T01:13:57.053Z,60.31
2023-01-09T01:17:04.035Z,65.30
2023-01-09T01:20:14.103Z,69.31
2023-01-09T01:23:21.016Z,68.09
2023-01-09T01:26:27.890Z,65.72
2023-01-09T01:29:34.709Z,64.15
2023-01-09T01:32:41.979Z,63.15
2023-01-09T01:35:48.702Z,62.52
2023-01-09T01:38:55.352Z,62.37
2023-01-09T01:42:03.829Z,62.33
2023-01-09T01:45:14.913Z,61.43
2023-01-09T01:48:25.475Z,60.69
2023-01-09T01:51:35.689Z,60.10
2023-01-09T01:54:42.956Z,59.31
2023-01-09T01:57:56.074Z,56.90
2023-01-09T02:01:03.534Z,57.89
2023-01-09T02:04:10.942Z,58.84
2023-01-09T02:07:17.618Z,63.79
2023-01-09T02:10:25.486Z,68.10
2023-01-09T02:13:33.722Z,67.48
2023-01-09T02:16:52.046Z,65.97
2023-01-09T02:20:32.678Z,64.57
2023-01-09T02:24:09.130Z,62.70
2023-01-09T02:27:56.432Z,61.69
2023-01-09T02:31:10.528Z,61.04
2023-01-09T02:34:27.581Z,60.55
2023-01-09T02:37:45.122Z,59.79
2023-01-09T02:41:01.176Z,57.08
2023-01-09T02:44:26.432Z,57.43
2023-01-09T02:47:44.938Z,58.39
2023-01-09T02:51:07.671Z,64.62
2023-01-09T02:54:29.255Z,67.63
2023-01-09T02:57:53.244Z,66.81
2023-01-09T03:01:08.809Z,65.28
2023-01-09T03:04:22.318Z,63.89
2023-01-09T03:07:35.786Z,63.17
2023-01-09T03:10:46.668Z,62.66
2023-01-09T03:13:56.887Z,61.93
2023-01-09T03:17:08.614Z,61.20
2023-01-09T03:20:20.818Z,60.37
2023-01-09T03:23:27.633Z,59.74
2023-01-09T03:26:34.502Z,57.55
2023-01-09T03:29:41.301Z,57.06
2023-01-09T03:32:48.127Z,58.71
2023-01-09T03:35:54.798Z,59.82
2023-01-09T03:39:01.517Z,64.42
2023-01-09T03:42:08.491Z,68.59
2023-01-09T03:45:16.178Z,68.15
2023-01-09T03:48:23.650Z,66.30
2023-01-09T03:51:30.388Z,65.21
2023-01-09T03:54:37.134Z,63.89
2023-01-09T03:57:44.004Z,62.43
2023-01-09T04:00:52.393Z,61.66
2023-01-09T04:03:59.165Z,60.84
2023-01-09T04:07:06.100Z,60.31
2023-01-09T04:10:14.222Z,59.22
2023-01-09T04:13:21.169Z,57.23
2023-01-09T04:16:28.083Z,58.54
2023-01-09T04:19:34.720Z,60.59
2023-01-09T04:22:41.508Z,65.39
2023-01-09T04:25:49.109Z,68.98
2023-01-09T04:28:55.759Z,67.78
2023-01-09T04:32:02.498Z,65.94
2023-01-09T04:35:11.209Z,64.38
2023-01-09T04:38:18.402Z,63.09
2023-01-09T04:41:42.663Z,62.45
2023-01-09T04:44:53.858Z,61.69
2023-01-09T04:48:00.594Z,61.02
2023-01-09T04:51:07.707Z,60.49
2023-01-09T04:54:14.903Z,60.23
2023-01-09T04:57:21.985Z,60.23
2023-01-09T05:00:29.109Z,59.54
2023-01-09T05:03:35.732Z,57.42
2023-01-09T05:06:42.502Z,62.56
2023-01-09T05:09:49.316Z,65.50
2023-01-09T05:12:56.022Z,65.13
2023-01-09T05:16:02.901Z,64.47
2023-01-09T05:19:09.720Z,63.56
2023-01-09T05:22:16.422Z,63.23
2023-01-09T05:25:23.118Z,62.52
2023-01-09T05:28:29.894Z,62.06
2023-01-09T05:31:36.695Z,61.83
2023-01-09T05:34:43.310Z,60.86
2023-01-09T05:37:52.455Z,60.74
2023-01-09T05:40:59.493Z,60.74
2023-01-09T05:44:06.648Z,60.35
2023-01-09T05:47:13.516Z,60.16
2023-01-09T05:50:20.323Z,60.37
2023-01-09T05:53:27.284Z,60.59
2023-01-09T05:56:34.139Z,60.31
2023-01-09T05:59:40.863Z,60.32
2023-01-09T06:02:47.641Z,60.01
2023-01-09T06:05:54.505Z,59.10
2023-01-09T06:09:01.289Z,57.84
2023-01-09T06:12:08.807Z,59.93
2023-01-09T06:15:16.518Z,65.56
2023-01-09T06:18:23.443Z,66.48
2023-01-09T06:21:30.415Z,66.14
2023-01-09T06:24:37.236Z,64.63
2023-01-09T06:27:44.027Z,63.37
2023-01-09T06:30:54.327Z,62.38
2023-01-09T06:34:01.089Z,61.37
2023-01-09T06:37:07.888Z,60.30
2023-01-09T06:40:15.911Z,59.94
2023-01-09T06:43:22.891Z,57.82
2023-01-09T06:46:29.877Z,58.98
2023-01-09T06:49:36.747Z,65.11
2023-01-09T06:52:43.695Z,66.01
2023-01-09T06:55:50.568Z,65.01
2023-01-09T06:58:57.472Z,63.70
2023-01-09T07:02:04.401Z,62.85
2023-01-09T07:05:12.908Z,61.96
2023-01-09T07:08:19.768Z,61.48
2023-01-09T07:11:26.840Z,60.85
2023-01-09T07:14:34.260Z,60.44
2023-01-09T07:17:41.045Z,59.88
2023-01-09T07:20:48.529Z,59.66
2023-01-09T07:23:55.641Z,58.93
2023-01-09T07:27:02.914Z,59.81
2023-01-09T07:30:12.351Z,65.35
2023-01-09T07:33:19.136Z,66.41
2023-01-09T07:36:26.060Z,65.32
2023-01-09T07:39:33.269Z,64.02
2023-01-09T07:42:40.092Z,62.69
2023-01-09T07:45:48.635Z,61.99
2023-01-09T07:48:56.504Z,61.51
2023-01-09T07:52:03.962Z,60.82
2023-01-09T07:55:12.628Z,60.31
2023-01-09T07:58:19.666Z,60.23
2023-01-09T08:01:26.641Z,59.88
2023-01-09T08:04:33.607Z,58.02
2023-01-09T08:07:40.532Z,58.08
2023-01-09T08:10:47.432Z,63.76
2023-01-09T08:13:54.521Z,65.01
2023-01-09T08:17:01.226Z,64.19
2023-01-09T08:20:11.084Z,62.88
2023-01-09T08:23:18.021Z,61.79
2023-01-09T08:26:24.921Z,60.92
2023-01-09T08:29:31.640Z,60.69
2023-01-09T08:32:42.475Z,60.27
2023-01-09T08:35:49.233Z,59.97
2023-01-09T08:38:56.161Z,60.12
2023-01-09T08:42:20.559Z,59.66
2023-01-09T08:45:45.413Z,56.94
2023-01-09T08:48:52.621Z,55.71
2023-01-09T08:51:59.306Z,58.52
2023-01-09T08:55:06.936Z,63.84
2023-01-09T08:58:13.883Z,67.28
2023-01-09T09:01:20.648Z,65.75
2023-01-09T09:04:27.654Z,64.00
2023-01-09T09:07:34.553Z,62.46
2023-01-09T09:10:41.277Z,61.04
2023-01-09T09:13:48.046Z,59.70
2023-01-09T09:16:55.226Z,56.81
2023-01-09T09:20:02.421Z,57.95
2023-01-09T09:23:09.296Z,60.01
2023-01-09T09:26:16.307Z,65.21
2023-01-09T09:29:23.280Z,67.11
2023-01-09T09:32:30.193Z,64.32
2023-01-09T09:35:37.711Z,62.16
2023-01-09T09:38:44.543Z,60.52
2023-01-09T09:42:28.808Z,58.93
2023-01-09T09:45:44.706Z,57.33
2023-01-09T09:48:57.154Z,58.11
2023-01-09T09:52:15.078Z,60.06
2023-01-09T09:55:31.049Z,65.60
2023-01-09T09:58:40.594Z,67.64
2023-01-09T10:01:54.954Z,67.06
2023-01-09T10:05:13.617Z,65.77
2023-01-09T10:08:31.559Z,64.02
2023-01-09T10:11:45.954Z,62.00
2023-01-09T10:14:52.957Z,61.14
2023-01-09T10:18:16.424Z,60.26
2023-01-09T10:21:31.744Z,59.23
2023-01-09T10:25:06.912Z,56.39
2023-01-09T10:28:29.521Z,59.99
2023-01-09T10:31:47.108Z,65.46
2023-01-09T10:35:06.172Z,65.38
2023-01-09T10:38:19.477Z,63.84
2023-01-09T10:41:33.050Z,62.46
2023-01-09T10:44:47.148Z,61.39
2023-01-09T10:48:01.489Z,59.95
2023-01-09T10:51:20.195Z,57.93
2023-01-09T10:54:29.360Z,57.48
2023-01-09T10:57:44.380Z,58.81
2023-01-09T11:00:52.617Z,62.87
2023-01-09T11:04:01.956Z,66.89
2023-01-09T11:07:18.063Z,65.13
2023-01-09T11:10:24.963Z,63.49
2023-01-09T11:13:33.588Z,62.19
2023-01-09T11:16:51.534Z,61.01
2023-01-09T11:20:06.499Z,60.51
2023-01-09T11:23:30.219Z,58.64
2023-01-09T11:26:39.840Z,56.81
2023-01-09T11:29:45.092Z,58.17
2023-01-09T11:32:52.227Z,59.88
2023-01-09T11:36:02.968Z,65.08
2023-01-09T11:39:24.911Z,67.97
2023-01-09T11:42:50.605Z,66.38
2023-01-09T11:46:01.646Z,64.21
2023-01-09T11:49:23.969Z,62.20
2023-01-09T11:52:30.802Z,60.28
2023-01-09T11:55:42.475Z,57.29
2023-01-09T11:58:50.114Z,56.75
2023-01-09T12:02:31.885Z,58.29
2023-01-09T12:05:50.321Z,59.21
2023-01-09T12:09:02.131Z,65.58
2023-01-09T12:12:21.588Z,68.61
2023-01-09T12:15:32.320Z,65.91
2023-01-09T12:18:54.869Z,64.59
2023-01-09T12:22:08.974Z,62.29
2023-01-09T12:25:29.294Z,60.64
2023-01-09T12:29:00.767Z,59.12
2023-01-09T12:32:28.855Z,56.78
2023-01-09T12:35:42.116Z,58.21
2023-01-09T12:38:57.160Z,60.11
2023-01-09T12:42:26.429Z,65.05
2023-01-09T12:45:45.423Z,68.37
2023-01-09T12:49:15.000Z,65.71
2023-01-09T12:52:26.738Z,62.97
2023-01-09T12:55:42.117Z,61.61
2023-01-09T12:58:54.521Z,60.22
2023-01-09T13:02:13.207Z,58.18
2023-01-09T13:05:24.912Z,56.84
2023-01-09T13:08:35.573Z,58.69
2023-01-09T13:11:48.351Z,63.51
2023-01-09T13:15:00.776Z,66.25
2023-01-09T13:18:13.687Z,64.72
2023-01-09T13:21:22.075Z,63.18
2023-01-09T13:24:37.492Z,62.00
2023-01-09T13:27:52.936Z,61.28
2023-01-09T13:31:15.147Z,60.75
2023-01-09T13:34:25.559Z,57.88
2023-01-09T13:37:34.264Z,57.82
2023-01-09T13:40:41.472Z,59.73
2023-01-09T13:43:59.724Z,64.85
2023-01-09T13:47:17.292Z,67.33
2023-01-09T13:50:30.312Z,65.71
2023-01-09T13:53:49.747Z,63.36
2023-01-09T13:57:12.515Z,61.90
2023-01-09T14:01:05.389Z,61.33
2023-01-09T14:04:44.665Z,60.54
2023-01-09T14:07:53.601Z,60.19
2023-01-09T14:11:02.787Z,59.47
2023-01-09T14:14:26.369Z,56.95
2023-01-09T14:17:38.596Z,57.90
2023-01-09T14:20:53.605Z,60.44
2023-01-09T14:24:06.698Z,65.04
2023-01-09T14:27:59.710Z,67.82
2023-01-09T14:31:10.467Z,66.28
2023-01-09T14:34:39.971Z,64.54
2023-01-09T14:37:54.071Z,63.10
2023-01-09T14:41:05.376Z,62.19
2023-01-09T14:44:26.161Z,62.14
2023-01-09T14:47:39.305Z,61.15
2023-01-09T14:50:55.215Z,60.59
2023-01-09T14:54:16.338Z,60.66
2023-01-09T14:57:31.301Z,60.43
2023-01-09T15:00:38.078Z,60.16
2023-01-09T15:03:50.801Z,60.32
2023-01-09T15:06:57.751Z,59.90
2023-01-09T15:10:06.147Z,60.20
2023-01-09T15:13:19.479Z,60.18
2023-01-09T15:16:28.417Z,60.17
2023-01-09T15:19:37.487Z,60.41
2023-01-09T15:22:52.754Z,60.65
2023-01-09T15:26:15.368Z,60.49
2023-01-09T15:29:23.512Z,60.83
2023-01-09T15:32:31.786Z,61.25
2023-01-09T15:35:42.106Z,61.00
2023-01-09T15:38:51.009Z,60.74
2023-01-09T15:42:25.650Z,60.73
2023-01-09T15:45:35.772Z,60.84
2023-01-09T15:48:42.883Z,60.69
2023-01-09T15:51:53.247Z,60.81
2023-01-09T15:55:02.514Z,60.68
2023-01-09T15:58:29.161Z,60.96
2023-01-09T16:01:39.785Z,61.01
2023-01-09T16:04:47.033Z,61.49
2023-01-09T16:07:54.722Z,61.63
2023-01-09T16:11:10.524Z,61.38
2023-01-09T16:14:21.805Z,61.44
2023-01-09T16:17:31.421Z,61.33
2023-01-09T16:20:40.111Z,61.80
2023-01-09T16:23:54.789Z,61.53
2023-01-09T16:27:21.898Z,61.32
2023-01-09T16:30:29.495Z,61.19
2023-01-09T16:33:36.687Z,61.33
2023-01-09T16:36:43.568Z,61.31
2023-01-09T16:40:24.163Z,61.27
2023-01-09T16:43:31.131Z,61.52
2023-01-09T16:46:40.372Z,61.90
2023-01-09T16:49:47.100Z,62.09
2023-01-09T16:52:53.944Z,61.79
2023-01-09T16:56:01.550Z,62.02
2023-01-09T16:59:15.294Z,62.08
2023-01-09T17:02:22.983Z,62.03
2023-01-09T17:05:29.715Z,62.19
2023-01-09T17:08:37.978Z,61.75
2023-01-09T17:11:45.892Z,61.72
2023-01-09T17:14:53.091Z,61.73
2023-01-09T17:18:00.986Z,61.27
2023-01-09T17:21:13.814Z,60.69
2023-01-09T17:24:38.919Z,60.54
2023-01-09T17:28:03.791Z,60.13
2023-01-09T17:31:13.028Z,58.56
2023-01-09T17:34:20.254Z,63.23
2023-01-09T17:37:27.010Z,66.91
2023-01-09T17:40:34.837Z,65.81
2023-01-09T17:43:44.118Z,65.20
2023-01-09T17:46:52.127Z,64.24
2023-01-09T17:49:58.930Z,63.36
2023-01-09T17:53:06.335Z,63.04
2023-01-09T17:56:18.423Z,63.09
2023-01-09T17:59:27.471Z,63.02
2023-01-09T18:02:34.561Z,62.92
2023-01-09T18:05:41.599Z,63.13
2023-01-09T18:08:48.936Z,62.76
2023-01-09T18:11:56.057Z,62.27
2023-01-09T18:15:03.517Z,62.08
2023-01-09T18:18:10.642Z,62.18
2023-01-09T18:21:20.313Z,62.72
2023-01-09T18:24:25.541Z,62.46
2023-01-09T18:27:32.435Z,62.15
2023-01-09T18:30:39.349Z,62.04
2023-01-09T18:33:47.425Z,62.10
2023-01-09T18:36:54.362Z,62.79
2023-01-09T18:40:01.210Z,63.10
2023-01-09T18:43:09.165Z,63.32
2023-01-09T18:46:16.444Z,64.30
2023-01-09T18:49:23.345Z,64.61
2023-01-09T18:52:30.108Z,64.71
2023-01-09T18:55:38.806Z,64.01
2023-01-09T18:58:45.628Z,63.67
2023-01-09T19:01:52.480Z,63.36
2023-01-09T19:04:59.321Z,63.54
2023-01-09T19:08:06.514Z,62.86
2023-01-09T19:11:13.546Z,62.17
2023-01-09T19:14:20.360Z,62.05
2023-01-09T19:17:27.113Z,61.83
2023-01-09T19:20:34.538Z,61.68
2023-01-09T19:23:43.037Z,61.25
2023-01-09T19:26:49.780Z,60.61
2023-01-09T19:29:56.715Z,61.19
2023-01-09T19:33:03.912Z,60.80
2023-01-09T19:36:11.577Z,60.34
2023-01-09T19:39:18.291Z,59.89
2023-01-09T19:42:25.611Z,58.36
2023-01-09T19:45:32.521Z,59.38
2023-01-09T19:48:39.656Z,63.86
2023-01-09T19:51:46.466Z,66.50
2023-01-09T19:54:53.732Z,65.61
2023-01-09T19:58:00.467Z,64.40
2023-01-09T20:01:12.599Z,63.27
2023-01-09T20:04:20.218Z,62.60
2023-01-09T20:07:27.078Z,62.03
2023-01-09T20:10:34.624Z,61.48
2023-01-09T20:13:41.832Z,60.98
2023-01-09T20:16:50.826Z,60.13
2023-01-09T20:19:57.606Z,58.03
2023-01-09T20:23:04.455Z,58.84
2023-01-09T20:26:11.291Z,61.45
2023-01-09T20:29:18.220Z,66.39
2023-01-09T20:32:25.156Z,67.37
2023-01-09T20:35:32.462Z,64.22
2023-01-09T20:38:41.502Z,62.16
2023-01-09T20:41:51.461Z,61.94
2023-01-09T20:44:58.333Z,62.20
2023-01-09T20:48:05.316Z,61.89
2023-01-09T20:51:12.714Z,61.54
2023-01-09T20:54:21.358Z,61.41
2023-01-09T20:57:29.596Z,61.14
2023-01-09T21:00:36.447Z,60.43
2023-01-09T21:03:44.017Z,59.78
2023-01-09T21:06:50.814Z,57.82
2023-01-09T21:09:58.453Z,60.04
2023-01-09T21:13:05.045Z,65.88
2023-01-09T21:16:13.429Z,65.51
2023-01-09T21:19:20.301Z,63.11
2023-01-09T21:22:27.230Z,61.45
2023-01-09T21:25:33.880Z,60.55
2023-01-09T21:28:50.264Z,60.20
2023-01-09T21:31:57.230Z,60.46
2023-01-09T21:35:05.991Z,58.86
2023-01-09T21:38:12.618Z,58.57
2023-01-09T21:41:39.196Z,61.24
2023-01-09T21:45:03.283Z,67.17
2023-01-09T21:48:11.370Z,66.29
2023-01-09T21:51:18.127Z,63.62
2023-01-09T21:54:25.822Z,62.52
2023-01-09T21:57:32.647Z,61.41
2023-01-09T22:00:41.286Z,60.45
2023-01-09T22:03:47.991Z,58.61
2023-01-09T22:06:54.936Z,59.49
2023-01-09T22:10:01.769Z,64.96
2023-01-09T22:13:16.224Z,66.23
2023-01-09T22:16:24.403Z,63.80
2023-01-09T22:19:31.726Z,62.25
2023-01-09T22:22:38.465Z,60.83
2023-01-09T22:25:47.524Z,59.69
2023-01-09T22:28:55.830Z,59.10
2023-01-09T22:32:05.852Z,57.72
2023-01-09T22:35:13.192Z,59.97
2023-01-09T22:38:19.853Z,65.28
2023-01-09T22:41:27.613Z,65.85
2023-01-09T22:44:34.361Z,63.60
2023-01-09T22:47:41.189Z,61.37
2023-01-09T22:50:47.875Z,60.13
2023-01-09T22:53:54.663Z,58.02
2023-01-09T22:57:01.540Z,58.53
2023-01-09T23:00:12.886Z,60.17
2023-01-09T23:03:19.649Z,65.43
2023-01-09T23:06:26.552Z,69.09
2023-01-09T23:09:33.282Z,67.32
2023-01-09T23:12:39.946Z,65.69
2023-01-09T23:15:47.198Z,64.47
2023-01-09T23:18:53.973Z,63.40
2023-01-09T23:22:01.498Z,62.82
2023-01-09T23:25:09.791Z,62.07
2023-01-09T23:28:16.612Z,61.38
2023-01-09T23:31:23.503Z,60.64
2023-01-09T23:34:30.319Z,59.78
2023-01-09T23:37:37.078Z,57.94
2023-01-09T23:40:44.473Z,59.43
2023-01-09T23:43:51.256Z,64.63
2023-01-09T23:46:57.954Z,65.33
2023-01-09T23:50:07.038Z,62.72
2023-01-09T23:53:13.884Z,61.31
2023-01-09T23:56:20.665Z,60.23
2023-01-09T23:59:27.610Z,59.55
